Time;durP1;ratioP1;P1;durP2;ratioP2;P2;SDS_P1;SDS_P2;PMS_P1;PMS_P2;Temp;Humidity;BMP_temperature;BMP_pressure;BME280_temperature;BME280_humidity;BME280_pressure;Samples;Min_cycle;Max_cycle;Signal;HPM_P1;HPM_P2
2022/07/09 00:00:21;;;;;;;6.88;5.57;;;;;;;16.23;100.00;93026.28;5097320;28;20048;-76
2022/07/09 00:02:48;;;;;;;8.48;5.97;;;;;;;16.31;100.00;93033.63;5091247;28;20413;-76
2022/07/09 00:05:15;;;;;;;7.65;5.78;;;;;;;16.37;100.00;93035.22;5096982;28;20109;-76
2022/07/09 00:07:41;;;;;;;8.65;5.55;;;;;;;16.36;100.00;93036.25;5104168;28;20048;-76
2022/07/09 00:10:10;;;;;;;8.68;6.13;;;;;;;16.39;100.00;93038.31;5097456;28;20047;-76
2022/07/09 00:12:37;;;;;;;8.80;6.80;;;;;;;16.45;100.00;93039.16;5101638;28;20047;-76
2022/07/09 00:15:04;;;;;;;11.57;8.48;;;;;;;16.52;100.00;93036.34;5096283;28;20040;-75
2022/07/09 00:17:31;;;;;;;10.48;8.55;;;;;;;16.62;100.00;93025.25;5095920;28;20101;-75
2022/07/09 00:19:58;;;;;;;12.48;8.63;;;;;;;16.63;100.00;93022.41;5088910;28;20512;-76
2022/07/09 00:22:25;;;;;;;14.00;10.05;;;;;;;16.70;100.00;93024.75;5087907;28;20503;-75
2022/07/09 00:24:52;;;;;;;9.90;8.60;;;;;;;16.74;100.00;93022.44;5089295;28;20047;-75
2022/07/09 00:27:20;;;;;;;10.30;9.07;;;;;;;16.74;100.00;93028.41;5088744;28;20051;-76
2022/07/09 00:29:48;;;;;;;6.78;5.38;;;;;;;16.70;100.00;93025.53;5099150;28;20416;-76
2022/07/09 00:32:15;;;;;;;6.93;5.53;;;;;;;16.66;100.00;93032.25;5106130;28;20047;-74
2022/07/09 00:34:41;;;;;;;8.05;4.85;;;;;;;16.76;100.00;93028.91;5108930;28;20555;-75
2022/07/09 00:37:08;;;;;;;9.43;5.07;;;;;;;16.83;100.00;93026.09;5104118;28;20069;-75
2022/07/09 00:39:35;;;;;;;5.95;4.22;;;;;;;16.80;100.00;93021.44;5109335;28;20047;-75
2022/07/09 00:42:06;;;;;;;5.70;3.70;;;;;;;16.48;100.00;93022.31;5091242;28;20040;-75
2022/07/09 00:44:34;;;;;;;4.72;3.40;;;;;;;16.56;100.00;93006.25;5088685;28;20040;-75
2022/07/09 00:47:02;;;;;;;5.35;4.07;;;;;;;16.55;100.00;93007.31;5103650;28;20497;-75
2022/07/09 00:49:30;;;;;;;5.85;4.10;;;;;;;16.41;100.00;93014.75;5108997;28;20054;-75
2022/07/09 00:51:57;;;;;;;4.93;3.90;;;;;;;16.43;100.00;93010.88;5108981;28;20044;-75
2022/07/09 00:54:25;;;;;;;6.57;4.65;;;;;;;16.39;100.00;93015.00;5109324;28;20040;-74
2022/07/09 00:56:53;;;;;;;6.07;5.30;;;;;;;16.29;100.00;93001.97;5109126;28;20125;-74
2022/07/09 00:59:21;;;;;;;8.60;5.40;;;;;;;16.43;100.00;93000.50;5109044;28;20126;-74
2022/07/09 01:01:51;;;;;;;7.68;5.80;;;;;;;16.33;100.00;92999.69;5108370;28;20092;-73
2022/07/09 01:04:18;;;;;;;6.82;4.85;;;;;;;16.20;100.00;92991.28;5109105;28;20171;-74
2022/07/09 01:06:45;;;;;;;6.30;4.32;;;;;;;16.26;100.00;92986.94;5108835;28;20043;-74
2022/07/09 01:09:13;;;;;;;5.68;4.40;;;;;;;16.07;100.00;92987.34;5103545;28;20047;-73
2022/07/09 01:11:40;;;;;;;5.35;4.22;;;;;;;16.06;100.00;92998.72;5088782;28;20043;-73
2022/07/09 01:14:07;;;;;;;5.72;3.72;;;;;;;15.82;100.00;92996.44;5089173;28;20044;-73
2022/07/09 01:16:35;;;;;;;4.45;3.47;;;;;;;15.55;100.00;92988.72;5088838;28;20052;-73
2022/07/09 01:19:03;;;;;;;5.10;3.80;;;;;;;15.77;100.00;92988.63;5088677;28;20108;-72
2022/07/09 01:21:31;;;;;;;4.55;2.72;;;;;;;15.83;100.00;92984.28;5089085;28;20044;-73
2022/07/09 01:23:58;;;;;;;3.78;2.72;;;;;;;15.98;100.00;92983.66;5088606;28;20105;-73
2022/07/09 01:26:26;;;;;;;4.07;3.05;;;;;;;16.08;100.00;92972.56;5088766;28;20501;-72
2022/07/09 01:28:52;;;;;;;3.75;2.95;;;;;;;16.29;100.00;92978.63;5089088;28;20124;-72
2022/07/09 01:31:20;;;;;;;5.78;3.50;;;;;;;16.38;100.00;92981.56;5088905;28;20044;-72
2022/07/09 01:33:47;;;;;;;4.43;3.08;;;;;;;16.50;100.00;92976.97;5089034;28;20101;-72
2022/07/09 01:36:13;;;;;;;3.92;2.60;;;;;;;16.61;100.00;92979.59;5088840;28;20044;-72
2022/07/09 01:38:41;;;;;;;2.90;2.30;;;;;;;16.56;100.00;92980.34;5088815;28;20044;-73
2022/07/09 01:41:08;;;;;;;4.07;2.42;;;;;;;16.51;100.00;92981.09;5088856;28;20055;-72
2022/07/09 01:43:36;;;;;;;3.60;2.42;;;;;;;16.50;100.00;92983.94;5088959;28;20040;-72
2022/07/09 01:46:02;;;;;;;3.05;2.25;;;;;;;16.28;100.00;92979.69;5095822;28;20132;-74
2022/07/09 01:48:30;;;;;;;3.45;2.15;;;;;;;15.89;100.00;92984.06;5096117;28;20059;-73
2022/07/09 01:50:58;;;;;;;3.33;2.60;;;;;;;15.70;100.00;92983.66;5088710;28;20044;-74
2022/07/09 01:53:25;;;;;;;3.85;2.35;;;;;;;15.36;100.00;92973.53;5088850;28;20044;-73
2022/07/09 01:55:53;;;;;;;4.00;2.90;;;;;;;15.33;100.00;92985.16;5088694;28;20070;-73
2022/07/09 01:58:20;;;;;;;3.28;2.75;;;;;;;15.19;100.00;92979.59;5088649;28;20101;-74
2022/07/09 02:00:47;;;;;;;3.95;3.22;;;;;;;15.05;100.00;92974.00;5088561;28;20439;-73
2022/07/09 02:03:14;;;;;;;3.38;3.05;;;;;;;14.95;100.00;92979.09;5088443;28;20409;-74
2022/07/09 02:05:41;;;;;;;6.22;3.10;;;;;;;14.94;100.00;92964.56;5088130;28;20501;-74
2022/07/09 02:08:07;;;;;;;4.50;3.53;;;;;;;14.77;100.00;92970.59;5088501;28;20048;-74
2022/07/09 02:10:34;;;;;;;4.53;3.95;;;;;;;14.81;100.00;92979.44;5088380;28;20048;-74
2022/07/09 02:13:03;;;;;;;5.60;4.20;;;;;;;14.96;100.00;92975.47;5088308;28;20479;-74
2022/07/09 02:15:29;;;;;;;6.43;4.18;;;;;;;15.12;100.00;92968.66;5091803;28;20048;-74
2022/07/09 02:17:56;;;;;;;4.72;3.83;;;;;;;15.26;100.00;92963.88;5092169;28;20184;-73
2022/07/09 02:20:23;;;;;;;3.75;3.40;;;;;;;15.25;100.00;92954.56;5092069;28;20089;-74
2022/07/09 02:22:50;;;;;;;4.43;3.28;;;;;;;15.41;100.00;92965.81;5091763;28;20055;-74
2022/07/09 02:25:17;;;;;;;3.97;3.25;;;;;;;15.60;100.00;92976.59;5092092;28;20456;-74
2022/07/09 02:27:43;;;;;;;5.38;3.47;;;;;;;15.75;100.00;92981.09;5091735;28;20044;-74
2022/07/09 02:30:13;;;;;;;5.13;4.07;;;;;;;15.83;100.00;92979.88;5091733;28;20039;-74
2022/07/09 02:32:39;;;;;;;4.53;3.47;;;;;;;15.98;100.00;92987.00;5091498;28;20044;-75
2022/07/09 02:35:08;;;;;;;4.70;3.63;;;;;;;15.95;100.00;92991.91;5091507;28;20493;-73
2022/07/09 02:37:35;;;;;;;4.22;3.75;;;;;;;16.05;100.00;92986.78;5091429;28;20094;-73
2022/07/09 02:40:01;;;;;;;4.10;3.35;;;;;;;16.15;100.00;92991.25;5091240;28;20048;-73
2022/07/09 02:42:28;;;;;;;4.55;3.67;;;;;;;16.08;100.00;92986.31;5091439;28;20048;-73
2022/07/09 02:44:55;;;;;;;3.90;3.50;;;;;;;15.99;100.00;92980.00;5091286;28;20105;-74
2022/07/09 02:47:23;;;;;;;4.57;4.00;;;;;;;16.03;100.00;92987.03;5105651;28;20043;-73
2022/07/09 02:49:50;;;;;;;4.60;3.67;;;;;;;15.99;100.00;92988.59;5091377;28;20047;-74
2022/07/09 02:52:17;;;;;;;5.28;4.10;;;;;;;16.02;100.00;92984.72;5091242;28;20051;-74
2022/07/09 02:54:43;;;;;;;5.00;4.18;;;;;;;15.97;100.00;92982.09;5091545;28;20055;-74
2022/07/09 02:57:11;;;;;;;5.13;4.28;;;;;;;15.69;100.00;92995.03;5091291;28;20048;-74
2022/07/09 02:59:38;;;;;;;3.65;3.20;;;;;;;15.66;100.00;92994.75;5091297;28;20044;-74
2022/07/09 03:02:05;;;;;;;4.80;3.95;;;;;;;15.65;100.00;92991.41;5091296;28;20093;-75
2022/07/09 03:04:34;;;;;;;5.03;3.60;;;;;;;15.52;100.00;93007.31;5091122;28;20044;-75
2022/07/09 03:07:00;;;;;;;4.57;3.88;;;;;;;15.48;100.00;93002.66;5091145;28;20048;-75
2022/07/09 03:09:27;;;;;;;4.60;3.65;;;;;;;15.49;100.00;93011.19;5091169;28;20117;-75
2022/07/09 03:11:54;;;;;;;4.72;3.75;;;;;;;15.57;100.00;93012.53;5090811;28;20048;-75
2022/07/09 03:14:20;;;;;;;4.38;3.75;;;;;;;15.49;100.00;92999.03;5090636;28;20048;-75
2022/07/09 03:16:48;;;;;;;4.22;3.53;;;;;;;15.65;100.00;92991.41;5090923;28;20051;-75
2022/07/09 03:19:15;;;;;;;5.32;3.55;;;;;;;15.92;100.00;93002.75;5090623;28;20501;-75
2022/07/09 03:21:43;;;;;;;7.03;5.10;;;;;;;16.00;100.00;93004.88;5090585;28;20139;-75
2022/07/09 03:24:09;;;;;;;4.75;3.53;;;;;;;16.07;100.00;92991.72;5090811;28;20047;-75
2022/07/09 03:26:36;;;;;;;4.38;3.22;;;;;;;16.14;100.00;93000.84;5090537;28;20109;-76
2022/07/09 03:29:03;;;;;;;3.55;2.70;;;;;;;15.97;100.00;92993.22;5090756;28;20073;-74
2022/07/09 03:31:30;;;;;;;4.00;3.13;;;;;;;16.11;100.00;93000.56;5090638;28;20452;-74
2022/07/09 03:33:57;;;;;;;4.22;3.33;;;;;;;16.12;100.00;93000.31;5090288;28;20429;-74
2022/07/09 03:36:24;;;;;;;4.57;3.40;;;;;;;16.17;100.00;93005.53;5088144;28;20044;-75
2022/07/09 03:38:52;;;;;;;3.97;2.95;;;;;;;16.15;100.00;92999.03;5089710;28;20142;-75
2022/07/09 03:41:19;;;;;;;3.90;2.95;;;;;;;15.99;100.00;92998.94;5090103;28;20052;-75
2022/07/09 03:43:45;;;;;;;3.72;2.80;;;;;;;16.09;100.00;92994.84;5090156;28;20572;-75
2022/07/09 03:46:12;;;;;;;3.50;2.90;;;;;;;16.04;100.00;93000.78;5098402;28;20039;-75
2022/07/09 03:48:39;;;;;;;4.25;3.30;;;;;;;16.10;100.00;93001.59;5096035;28;20064;-74
2022/07/09 03:51:06;;;;;;;5.47;3.40;;;;;;;16.07;100.00;93008.06;5089963;28;20048;-73
2022/07/09 03:53:32;;;;;;;3.75;2.75;;;;;;;16.12;100.00;93000.31;5089873;28;20093;-74
2022/07/09 03:56:00;;;;;;;4.15;3.22;;;;;;;16.11;100.00;93008.34;5090039;28;20104;-75
2022/07/09 03:58:27;;;;;;;5.20;2.70;;;;;;;16.21;100.00;93013.59;5089570;28;20435;-74
2022/07/09 04:00:54;;;;;;;3.65;2.95;;;;;;;16.26;100.00;93003.25;5089279;28;20059;-74
2022/07/09 04:03:21;;;;;;;3.65;2.95;;;;;;;16.33;100.00;93010.03;5089459;28;20143;-75
2022/07/09 04:05:48;;;;;;;3.90;3.20;;;;;;;16.34;100.00;93004.59;5089768;28;20109;-74
2022/07/09 04:08:14;;;;;;;3.50;2.67;;;;;;;16.43;100.00;93004.91;5089612;28;20056;-74
2022/07/09 04:10:41;;;;;;;3.35;2.80;;;;;;;16.33;100.00;93008.22;5089492;28;20501;-74
2022/07/09 04:13:09;;;;;;;3.00;2.65;;;;;;;16.37;100.00;93005.91;5089921;28;20052;-75
2022/07/09 04:15:36;;;;;;;3.90;2.90;;;;;;;16.32;100.00;93009.25;5089669;28;20093;-75
2022/07/09 04:18:03;;;;;;;4.18;2.90;;;;;;;16.27;100.00;93014.41;5087831;28;20061;-75
2022/07/09 04:20:30;;;;;;;3.97;2.88;;;;;;;16.27;100.00;93017.78;5096300;27;20097;-74
2022/07/09 04:22:56;;;;;;;4.35;3.45;;;;;;;16.20;100.00;93022.38;5105404;27;20051;-74
2022/07/09 04:25:23;;;;;;;3.33;2.80;;;;;;;16.08;100.00;93019.19;5112760;27;20695;-74
2022/07/09 04:27:50;;;;;;;6.82;4.53;;;;;;;16.06;100.00;93032.38;5116457;27;20051;-74
2022/07/09 04:30:18;;;;;;;5.75;4.32;;;;;;;16.15;100.00;93033.50;5097807;28;20734;-74
2022/07/09 04:32:45;;;;;;;4.65;3.50;;;;;;;16.16;100.00;93037.66;5089354;28;20047;-74
2022/07/09 04:35:12;;;;;;;4.38;3.67;;;;;;;16.11;100.00;93035.03;5095512;27;20092;-74
2022/07/09 04:37:39;;;;;;;5.70;3.60;;;;;;;16.11;100.00;93034.25;5112199;27;20101;-74
2022/07/09 04:40:06;;;;;;;5.55;4.20;;;;;;;16.07;100.00;93033.19;5099281;28;20042;-75
2022/07/09 04:42:33;;;;;;;4.63;3.80;;;;;;;16.16;100.00;93032.47;5089662;28;20040;-75
2022/07/09 04:45:00;;;;;;;4.57;3.85;;;;;;;16.16;100.00;93032.47;5089350;28;20125;-77
2022/07/09 04:47:28;;;;;;;6.32;4.28;;;;;;;16.28;100.00;93037.47;5103462;28;20097;-76
2022/07/09 04:49:55;;;;;;;6.47;4.40;;;;;;;16.35;100.00;93033.91;5089223;28;20048;-75
2022/07/09 04:52:26;;;;;;;5.82;3.20;;;;;;;16.28;100.00;93040.06;5088735;28;20052;-75
2022/07/09 04:54:53;;;;;;;3.28;2.45;;;;;;;16.02;100.00;93041.72;5088834;28;20159;-75
2022/07/09 04:57:20;;;;;;;3.35;2.67;;;;;;;15.92;100.00;93042.34;5106216;27;20039;-75
2022/07/09 04:59:47;;;;;;;3.35;2.55;;;;;;;15.70;100.00;93050.97;5117234;27;20048;-75
2022/07/09 05:02:14;;;;;;;3.60;2.58;;;;;;;15.54;100.00;93042.28;5116913;28;20459;-75
2022/07/09 05:04:42;;;;;;;4.05;3.10;;;;;;;15.66;100.00;93042.16;5097902;28;20047;-75
2022/07/09 05:07:09;;;;;;;4.03;3.33;;;;;;;15.65;100.00;93035.41;5120514;28;20085;-75
2022/07/09 05:09:36;;;;;;;4.80;3.65;;;;;;;15.88;100.00;93036.13;5094116;28;20052;-75
2022/07/09 05:12:03;;;;;;;6.18;3.17;;;;;;;15.95;100.00;93034.13;5088846;28;20570;-75
2022/07/09 05:14:30;;;;;;;3.65;3.03;;;;;;;15.88;100.00;93021.34;5118348;28;20047;-75
2022/07/09 05:16:57;;;;;;;3.60;2.50;;;;;;;16.05;100.00;93037.84;5103576;28;20047;-76
2022/07/09 05:19:24;;;;;;;4.03;2.72;;;;;;;16.06;100.00;93045.34;5089268;28;20048;-76
2022/07/09 05:21:52;;;;;;;2.78;2.20;;;;;;;15.92;100.00;93042.34;5089128;28;20044;-76
2022/07/09 05:24:19;;;;;;;4.40;2.95;;;;;;;15.97;100.00;93052.78;5089060;28;20075;-76
2022/07/09 05:26:46;;;;;;;20.67;14.75;;;;;;;16.05;100.00;93051.56;5089089;28;20052;-75
2022/07/09 05:29:13;;;;;;;13.10;9.68;;;;;;;15.93;100.00;93046.56;5089157;28;20052;-75
2022/07/09 05:31:40;;;;;;;4.20;3.17;;;;;;;15.74;100.00;93044.28;5116499;28;20049;-75
2022/07/09 05:34:07;;;;;;;3.83;2.55;;;;;;;15.86;100.00;93058.88;5102031;28;20051;-75
2022/07/09 05:36:34;;;;;;;6.57;2.83;;;;;;;15.79;100.00;93060.91;5089097;28;20048;-75
2022/07/09 05:39:03;;;;;;;6.18;2.97;;;;;;;15.84;100.00;93059.13;5088163;28;20196;-75
2022/07/09 05:41:30;;;;;;;2.95;2.17;;;;;;;15.60;100.00;93053.50;5097334;28;20489;-75
2022/07/09 05:43:57;;;;;;;2.60;1.95;;;;;;;15.34;100.00;93048.06;5099988;28;20047;-76
2022/07/09 05:46:23;;;;;;;3.33;2.53;;;;;;;15.37;100.00;93045.00;5099479;28;20056;-75
2022/07/09 05:48:50;;;;;;;3.05;2.33;;;;;;;15.16;100.00;93047.34;5090656;28;20101;-76
2022/07/09 05:51:17;;;;;;;5.05;2.90;;;;;;;14.94;100.00;93062.84;5091890;28;20562;-75
2022/07/09 05:53:44;;;;;;;2.97;2.67;;;;;;;14.82;100.00;93050.06;5091810;28;20048;-76
2022/07/09 05:56:12;;;;;;;3.40;2.88;;;;;;;14.63;100.00;93023.69;5092108;28;20046;-75
2022/07/09 05:58:39;;;;;;;3.70;2.72;;;;;;;14.70;100.00;93063.06;5091797;28;20398;-76
2022/07/09 06:01:06;;;;;;;3.83;2.78;;;;;;;14.68;100.00;93057.34;5091973;28;20044;-76
2022/07/09 06:03:33;;;;;;;3.47;3.17;;;;;;;14.57;100.00;93049.44;5092541;28;20165;-76
2022/07/09 06:06:00;;;;;;;5.32;3.25;;;;;;;14.55;100.00;93050.72;5113683;27;20047;-77
2022/07/09 06:08:26;;;;;;;5.40;3.38;;;;;;;14.55;100.00;93050.72;5095659;28;20040;-76
2022/07/09 06:10:53;;;;;;;3.53;2.80;;;;;;;14.59;100.00;93056.97;5092103;28;20087;-76
2022/07/09 06:13:21;;;;;;;4.25;2.75;;;;;;;14.59;100.00;93054.41;5097570;28;20043;-76
2022/07/09 06:15:48;;;;;;;6.10;3.22;;;;;;;14.65;100.00;93056.03;5105060;28;20090;-77
2022/07/09 06:18:16;;;;;;;3.25;2.70;;;;;;;14.70;100.00;93060.47;5091769;28;20094;-77
2022/07/09 06:20:42;;;;;;;3.45;2.58;;;;;;;14.77;100.00;93058.50;5091963;28;20105;-76
2022/07/09 06:23:09;;;;;;;3.28;2.78;;;;;;;14.78;100.00;93052.34;5092096;28;20566;-75
2022/07/09 06:25:37;;;;;;;3.60;2.47;;;;;;;14.69;100.00;93053.75;5091743;28;20086;-76
2022/07/09 06:28:04;;;;;;;3.00;2.58;;;;;;;14.76;100.00;93049.19;5092084;28;20825;-76
2022/07/09 06:30:33;;;;;;;4.05;2.55;;;;;;;14.81;100.00;93045.88;5091571;28;20098;-76
2022/07/09 06:33:00;;;;;;;3.25;2.63;;;;;;;14.82;100.00;93050.81;5091764;28;20067;-76
2022/07/09 06:35:27;;;;;;;4.35;2.90;;;;;;;14.93;100.00;93056.13;5091826;28;20101;-75
2022/07/09 06:37:54;;;;;;;3.55;2.75;;;;;;;14.88;100.00;93051.69;5091774;28;20044;-76
2022/07/09 06:40:20;;;;;;;3.22;2.55;;;;;;;14.98;100.00;93051.00;5091587;28;20044;-76
2022/07/09 06:42:47;;;;;;;2.90;2.58;;;;;;;15.09;100.00;93057.09;5091712;28;20044;-75
2022/07/09 06:45:14;;;;;;;3.50;2.90;;;;;;;15.06;100.00;93055.00;5091781;28;20386;-77
2022/07/09 06:47:42;;;;;;;4.70;3.15;;;;;;;15.17;100.00;93067.00;5105321;28;20050;-76
2022/07/09 06:50:09;;;;;;;3.70;2.70;;;;;;;15.19;100.00;93057.19;5091328;28;20062;-76
2022/07/09 06:52:36;;;;;;;3.97;2.90;;;;;;;15.24;100.00;93064.25;5091475;28;20057;-76
2022/07/09 06:55:03;;;;;;;2.92;2.47;;;;;;;15.33;100.00;93057.59;5091646;28;20383;-76
2022/07/09 06:57:30;;;;;;;3.45;2.72;;;;;;;15.39;100.00;93070.59;5091344;28;20040;-76
2022/07/09 06:59:57;;;;;;;3.15;2.70;;;;;;;15.56;100.00;93066.13;5089376;28;20101;-76
2022/07/09 07:02:24;;;;;;;4.07;3.08;;;;;;;15.41;100.00;93068.56;5090103;28;20043;-76
2022/07/09 07:04:52;;;;;;;3.85;3.45;;;;;;;15.59;100.00;93064.84;5109871;27;20448;-76
2022/07/09 07:07:20;;;;;;;3.95;3.28;;;;;;;15.70;100.00;93058.75;5115584;27;20413;-75
2022/07/09 07:09:46;;;;;;;3.72;2.90;;;;;;;15.74;100.00;93062.41;5103928;28;20530;-76
2022/07/09 07:12:14;;;;;;;3.60;2.78;;;;;;;15.58;100.00;93066.69;5091153;28;20455;-76
2022/07/09 07:14:40;;;;;;;3.75;2.70;;;;;;;15.66;100.00;93067.25;5099271;28;20044;-76
2022/07/09 07:17:07;;;;;;;3.33;3.03;;;;;;;15.63;100.00;93069.31;5089759;28;20124;-77
2022/07/09 07:19:34;;;;;;;3.72;2.95;;;;;;;15.71;100.00;93068.09;5098100;28;20410;-77
2022/07/09 07:22:02;;;;;;;3.55;2.72;;;;;;;15.66;100.00;93067.25;5089036;28;20067;-77
2022/07/09 07:24:30;;;;;;;3.97;3.20;;;;;;;15.62;100.00;93070.34;5098745;28;20474;-77
2022/07/09 07:26:57;;;;;;;4.28;3.30;;;;;;;15.64;100.00;93072.66;5099005;28;20118;-79
2022/07/09 07:29:23;;;;;;;4.03;3.50;;;;;;;15.73;100.00;93073.00;5098408;28;20088;-77
2022/07/09 07:31:51;;;;;;;4.93;3.22;;;;;;;15.65;100.00;93056.13;5097652;28;20051;-77
2022/07/09 07:34:22;;;;;;;3.55;2.92;;;;;;;15.79;100.00;93072.06;5096953;28;20048;-77
2022/07/09 07:36:48;;;;;;;4.07;2.80;;;;;;;15.76;100.00;93075.91;5090727;28;20097;-77
2022/07/09 07:39:16;;;;;;;4.15;3.15;;;;;;;15.73;100.00;93073.81;5090322;28;20097;-77
2022/07/09 07:41:44;;;;;;;4.60;4.05;;;;;;;15.75;100.00;93069.16;5090175;28;20521;-76
2022/07/09 07:44:10;;;;;;;4.07;3.30;;;;;;;15.72;100.00;93074.84;5090696;28;20044;-77
2022/07/09 07:46:37;;;;;;;3.72;3.17;;;;;;;15.57;100.00;93077.28;5102190;28;20047;-76
2022/07/09 07:49:04;;;;;;;3.22;2.80;;;;;;;15.66;100.00;93072.44;5092431;28;20480;-77
2022/07/09 07:51:31;;;;;;;4.00;3.20;;;;;;;15.54;100.00;93069.97;5090119;28;20098;-77
2022/07/09 07:53:57;;;;;;;3.70;3.28;;;;;;;15.59;100.00;93075.22;5089956;28;20104;-76
2022/07/09 07:56:25;;;;;;;3.63;2.78;;;;;;;15.59;100.00;93082.97;5090355;28;20044;-76
2022/07/09 07:58:52;;;;;;;3.72;3.10;;;;;;;15.69;100.00;93082.31;5090128;28;20056;-77
2022/07/09 08:01:19;;;;;;;3.97;3.08;;;;;;;15.60;100.00;93084.56;5090275;28;20796;-78
2022/07/09 08:03:46;;;;;;;3.72;2.90;;;;;;;15.60;100.00;93079.38;5090345;28;20108;-77
2022/07/09 08:06:13;;;;;;;4.22;2.92;;;;;;;15.60;100.00;93080.16;5121155;27;20192;-76
2022/07/09 08:08:40;;;;;;;3.40;2.95;;;;;;;15.70;100.00;93081.28;5099241;28;20093;-77
2022/07/09 08:11:07;;;;;;;3.47;2.70;;;;;;;15.64;100.00;93093.38;5090045;28;20097;-77
2022/07/09 08:13:35;;;;;;;3.17;2.30;;;;;;;15.58;100.00;93078.81;5097834;28;20043;-76
2022/07/09 08:16:02;;;;;;;3.38;2.97;;;;;;;15.52;100.00;93096.13;5108252;28;20052;-77
2022/07/09 08:18:29;;;;;;;3.38;2.67;;;;;;;15.56;100.00;93091.25;5089935;28;20486;-78
2022/07/09 08:20:55;;;;;;;3.13;2.50;;;;;;;15.69;100.00;93098.63;5089780;28;20101;-78
2022/07/09 08:23:22;;;;;;;3.88;3.25;;;;;;;15.80;100.00;93083.97;5088944;28;20044;-77
2022/07/09 08:25:49;;;;;;;3.92;2.92;;;;;;;15.85;100.00;93088.41;5089409;28;20126;-77
2022/07/09 08:28:16;;;;;;;4.63;3.20;;;;;;;15.89;100.00;93095.44;5089289;28;20067;-78
2022/07/09 08:30:44;;;;;;;4.28;3.33;;;;;;;15.99;100.00;93089.63;5089078;28;20048;-78
2022/07/09 08:33:11;;;;;;;3.88;3.15;;;;;;;16.11;100.00;93099.81;5089040;28;20046;-77
2022/07/09 08:35:38;;;;;;;3.65;2.70;;;;;;;16.09;100.00;93095.88;5088876;28;20052;-78
2022/07/09 08:38:04;;;;;;;3.30;2.55;;;;;;;16.08;100.00;93086.56;5088820;28;20052;-78
2022/07/09 08:40:31;;;;;;;3.35;2.90;;;;;;;16.09;100.00;93090.72;5089135;28;20097;-78
2022/07/09 08:43:03;;;;;;;3.40;2.97;;;;;;;16.04;100.00;93070.72;5088790;28;20044;-78
2022/07/09 08:45:31;;;;;;;4.00;3.45;;;;;;;15.96;100.00;93058.25;5091408;28;20036;-78
2022/07/09 08:48:01;;;;;;;3.92;3.25;;;;;;;16.28;100.00;93089.31;5109415;28;20432;-79
2022/07/09 08:50:29;;;;;;;4.63;3.58;;;;;;;16.30;100.00;93104.63;5109323;28;20044;-79
2022/07/09 08:52:56;;;;;;;4.50;3.55;;;;;;;16.39;100.00;93097.19;5109690;28;20425;-78
2022/07/09 08:55:23;;;;;;;3.97;3.00;;;;;;;16.44;100.00;93094.63;5089184;28;20451;-78
2022/07/09 08:57:51;;;;;;;4.40;3.60;;;;;;;16.50;100.00;93100.59;5089098;28;20127;-77
2022/07/09 09:00:18;;;;;;;4.78;4.28;;;;;;;16.39;100.00;93090.16;5088840;28;20512;-77
2022/07/09 09:02:44;;;;;;;3.58;3.03;;;;;;;16.46;100.00;93096.94;5089298;28;20113;-77
2022/07/09 09:05:14;;;;;;;5.03;4.00;;;;;;;16.36;100.00;93097.66;5105049;28;20553;-78
2022/07/09 09:07:41;;;;;;;5.15;4.43;;;;;;;16.27;100.00;93097.34;5100032;28;20093;-78
2022/07/09 09:10:09;;;;;;;3.45;2.92;;;;;;;16.25;100.00;93112.38;5089026;28;20048;-77
2022/07/09 09:12:36;;;;;;;3.95;3.55;;;;;;;16.24;100.00;93108.22;5088860;28;20507;-77
2022/07/09 09:15:06;;;;;;;6.05;3.83;;;;;;;16.18;100.00;93104.78;5092140;28;20539;-77
2022/07/09 09:17:33;;;;;;;4.45;3.80;;;;;;;16.24;100.00;93098.63;5087123;28;20134;-77
2022/07/09 09:20:00;;;;;;;3.78;3.38;;;;;;;16.40;100.00;93096.16;5088886;28;20056;-77
2022/07/09 09:22:29;;;;;;;4.50;3.70;;;;;;;16.52;100.00;93101.16;5089289;28;20055;-77
2022/07/09 09:24:55;;;;;;;3.70;3.10;;;;;;;16.40;100.00;93106.50;5093283;28;20040;-78
2022/07/09 09:27:30;;;;;;;4.28;3.53;;;;;;;16.61;100.00;93106.66;5092673;28;20089;-77
2022/07/09 09:30:00;;;;;;;3.97;3.58;;;;;;;16.52;100.00;93108.94;5092895;28;20044;-77
2022/07/09 09:32:26;;;;;;;4.03;3.40;;;;;;;16.46;100.00;93099.53;5093145;28;20044;-77
2022/07/09 09:34:53;;;;;;;4.03;3.58;;;;;;;16.61;100.00;93094.47;5092534;28;20593;-76
2022/07/09 09:37:29;;;;;;;3.45;2.97;;;;;;;16.80;100.00;93094.06;5092718;28;20089;-76
2022/07/09 09:39:56;;;;;;;3.65;2.60;;;;;;;16.80;100.00;93089.66;5092735;28;20142;-77
2022/07/09 09:42:25;;;;;;;4.80;2.80;;;;;;;16.93;100.00;93091.03;5092396;28;20131;-77
2022/07/09 09:44:52;;;;;;;3.67;2.85;;;;;;;16.81;100.00;93059.31;5092569;28;20127;-77
2022/07/09 09:47:23;;;;;;;3.20;2.63;;;;;;;16.94;100.00;93099.59;5106707;28;20125;-78
2022/07/09 09:49:50;;;;;;;3.55;2.72;;;;;;;16.73;100.00;93078.72;5092842;28;20408;-77
2022/07/09 09:52:20;;;;;;;3.72;3.05;;;;;;;16.74;100.00;93080.28;5092332;28;20051;-77
2022/07/09 09:54:49;;;;;;;6.85;3.45;;;;;;;16.54;100.00;93092.06;5092572;28;20487;-78
2022/07/09 09:57:17;;;;;;;4.90;4.10;;;;;;;16.44;100.00;93105.00;5092204;28;20405;-78
2022/07/09 09:59:45;;;;;;;3.83;3.35;;;;;;;16.48;100.00;93100.09;5091917;28;20058;-77
2022/07/09 10:02:13;;;;;;;4.00;3.47;;;;;;;16.30;100.00;93096.84;5092337;28;20458;-77
2022/07/09 10:04:41;;;;;;;4.15;3.75;;;;;;;16.34;100.00;93105.69;5101899;27;20543;-78
2022/07/09 10:07:09;;;;;;;4.28;3.75;;;;;;;16.10;100.00;93074.91;5126915;27;20050;-80
2022/07/09 10:09:36;;;;;;;4.38;3.40;;;;;;;16.17;100.00;93103.22;5100299;28;20047;-79
2022/07/09 10:12:05;;;;;;;4.55;3.45;;;;;;;15.89;100.00;93102.44;5092193;28;20044;-78
2022/07/09 10:14:33;;;;;;;4.53;3.22;;;;;;;15.87;100.00;93086.34;5108207;28;20040;-77
2022/07/09 10:17:11;;;;;;;4.35;3.20;;;;;;;15.82;100.00;93096.66;5094771;28;20050;-78
2022/07/09 10:19:38;;;;;;;4.95;3.47;;;;;;;15.74;100.00;93072.78;5092264;28;20052;-78
2022/07/09 10:22:05;;;;;;;4.70;2.67;;;;;;;16.00;100.00;93088.59;5092112;28;20571;-78
2022/07/09 10:24:33;;;;;;;3.55;2.90;;;;;;;16.05;100.00;93100.03;5092394;28;20044;-78
2022/07/09 10:27:07;;;;;;;3.75;3.05;;;;;;;15.93;100.00;93111.31;5091776;28;20052;-79
2022/07/09 10:29:35;;;;;;;5.07;3.05;;;;;;;15.61;100.00;93076.53;5092002;28;20499;-77
2022/07/09 10:32:02;;;;;;;5.78;2.83;;;;;;;15.80;100.00;93096.13;5091750;28;20101;-79
2022/07/09 10:34:38;;;;;;;4.25;3.15;;;;;;;15.66;100.00;93099.13;5090710;28;20135;-79
2022/07/09 10:37:06;;;;;;;4.28;3.30;;;;;;;15.69;100.00;93105.63;5091748;28;20052;-78
2022/07/09 10:39:33;;;;;;;4.25;2.72;;;;;;;15.60;100.00;93103.44;5092043;28;20051;-80
2022/07/09 10:42:01;;;;;;;2.85;2.08;;;;;;;15.55;100.00;93100.81;5092013;28;20523;-79
2022/07/09 10:44:34;;;;;;;4.82;2.08;;;;;;;15.52;100.00;93098.72;5091986;28;20387;-80
2022/07/09 10:47:01;;;;;;;4.10;2.28;;;;;;;14.86;100.00;93068.47;5105613;28;20051;-80
2022/07/09 10:49:28;;;;;;;3.58;2.05;;;;;;;15.24;100.00;93097.91;5091926;28;20082;-79
2022/07/09 10:51:59;;;;;;;3.78;1.83;;;;;;;15.12;100.00;93097.22;5092151;28;20390;-80
2022/07/09 10:54:26;;;;;;;3.75;1.63;;;;;;;15.07;100.00;93093.56;5091855;28;20131;-81
2022/07/09 10:56:53;;;;;;;3.15;1.83;;;;;;;15.05;100.00;93110.34;5091776;28;20105;-82
2022/07/09 10:59:20;;;;;;;4.47;1.73;;;;;;;14.76;100.00;93106.09;5091567;28;20444;-80
2022/07/09 11:01:50;;;;;;;3.67;2.28;;;;;;;14.76;100.00;93118.25;5091582;28;20044;-82
2022/07/09 11:04:33;;;;;;;3.53;1.90;;;;;;;14.66;100.00;93116.25;5094658;27;20062;-80
2022/07/09 11:07:01;;;;;;;3.33;2.17;;;;;;;14.70;100.00;93123.31;5118924;27;20048;-80
2022/07/09 11:09:30;;;;;;;2.58;2.08;;;;;;;14.80;100.00;93122.69;5093867;28;20072;-80
2022/07/09 11:11:57;;;;;;;3.40;2.28;;;;;;;14.92;100.00;93125.19;5091450;28;20408;-81
2022/07/09 11:14:23;;;;;;;5.28;2.40;;;;;;;14.98;100.00;93112.28;5095572;28;20093;-82
2022/07/09 11:16:58;;;;;;;2.60;1.90;;;;;;;15.11;100.00;93114.56;5103924;28;20044;-81
2022/07/09 11:19:26;;;;;;;2.75;1.98;;;;;;;14.96;100.00;93105.56;5091285;28;20052;-81
2022/07/09 11:22:02;;;;;;;2.95;2.03;;;;;;;15.03;100.00;93115.75;5090848;28;20048;-80
2022/07/09 11:24:29;;;;;;;2.90;2.10;;;;;;;15.01;100.00;93128.16;5090861;28;20052;-81